^^
Station Historical Data
Daily Summary for November 18, 2017 Units:  Metric    English   Both
« Previous Day
Next Day »
Daily Weekly Monthly Yearly Custom
  High: Low: Average:
Temperature: 31.9 °C 13.4 °C 22.2 °C
Dew Point: -1.1 °C -10.1 °C -4 °C
Humidity: 31% 6% 19%
Wind Speed: 22.7km/h 0km/h 7.2km/h
Wind Gust: 25.7km/h - -
Wind- - SW
Pressure: 1012.8 hPa 1007 hPa -
Precipitation: 0 mm    
Historical Graphs
 
 
Tabular Data for November 18, 2017
Time Temperature Dew Point Pressure Wind Wind Speed Wind Gust Humidity Rainfall Rate (Hourly) solar Conditions
00:00 20.1 °C -2.9 °C 1012.4 hPa SSW 19.5 km/h 20.9 km/h 21% 0 mm 0.0 W/m2
00:05 20.1 °C -2.9 °C 1012.4 hPa SSW 17.7 km/h 19.3 km/h 21% 0 mm 0.0 W/m2
00:15 20 °C -3 °C 1012.1 hPa SSW 22.7 km/h 24.1 km/h 21% 0 mm 0.0 W/m2
00:20 20 °C -3 °C 1012.1 hPa SSW 17.7 km/h 25.7 km/h 21% 0 mm 0.0 W/m2
00:29 19.8 °C -3.2 °C 1012.1 hPa SSW 16.3 km/h 24.1 km/h 21% 0 mm 0.0 W/m2
00:35 19.7 °C -3.2 °C 1012.1 hPa SSW 17.7 km/h 22.5 km/h 21% 0 mm 0.0 W/m2
00:40 19.7 °C -3.2 °C 1012.1 hPa SSW 17.7 km/h 22.5 km/h 21% 0 mm 0.0 W/m2
00:45 19.6 °C -3.3 °C 1011.7 hPa SSW 17.7 km/h 17.7 km/h 21% 0 mm 0.0 W/m2
00:50 19.6 °C -2.7 °C 1011.7 hPa SSW 13 km/h 22.5 km/h 22% 0 mm 0.0 W/m2
00:55 19.4 °C -2.9 °C 1011.7 hPa SSW 20.9 km/h 22.5 km/h 22% 0 mm 0.0 W/m2
01:05 19.5 °C -2.8 °C 1011.7 hPa SSW 11.1 km/h 22.5 km/h 22% 0 mm 0.0 W/m2
01:10 19.4 °C -2.9 °C 1011.7 hPa SSW 14.3 km/h 22.5 km/h 22% 0 mm 0.0 W/m2
01:15 19.3 °C -3 °C 1011.7 hPa SSW 16.3 km/h 20.9 km/h 22% 0 mm 0.0 W/m2
01:25 19.4 °C -2.9 °C 1011.7 hPa SSW 17.7 km/h 24.1 km/h 22% 0 mm 0.0 W/m2
01:30 19.3 °C -3 °C 1011.7 hPa SSW 14.3 km/h 19.3 km/h 22% 0 mm 0.0 W/m2
01:35 19.1 °C -2.5 °C 1011.7 hPa SSW 11.1 km/h 16.1 km/h 23% 0 mm 0.0 W/m2
01:45 18.9 °C -2.7 °C 1011.7 hPa SSW 9.7 km/h 14.5 km/h 23% 0 mm 0.0 W/m2
01:56 18.6 °C -2.9 °C 1011.7 hPa SSW 6.4 km/h 11.3 km/h 23% 0 mm 0.0 W/m2
02:01 18.3 °C -3.2 °C 1011.7 hPa Calm   4.8 km/h 23% 0 mm 0.0 W/m2
02:06 18 °C -2.9 °C 1011.7 hPa SSW 6.4 km/h 8 km/h 24% 0 mm 0.0 W/m2
02:11 17.6 °C -3.2 °C 1011.7 hPa SSW 6.4 km/h 8 km/h 24% 0 mm 0.0 W/m2
02:16 17.3 °C -2.9 °C 1011.7 hPa SSW 4.7 km/h 8 km/h 25% 0 mm 0.0 W/m2
02:21 17.1 °C -3.1 °C 1011.7 hPa SSW 7.9 km/h 8 km/h 25% 0 mm 0.0 W/m2
02:26 17 °C -3.2 °C 1011.7 hPa SSW 6.4 km/h 8 km/h 25% 0 mm 0.0 W/m2
02:31 16.9 °C -3.3 °C 1011.7 hPa SSW 4.7 km/h 6.4 km/h 25% 0 mm 0.0 W/m2
02:37 16.8 °C -3.3 °C 1011.7 hPa SSW 3.2 km/h 4.8 km/h 25% 0 mm 0.0 W/m2
02:43 16.7 °C -3.4 °C 1011.7 hPa SSW 3.2 km/h 4.8 km/h 25% 0 mm 0.0 W/m2
02:48 16.6 °C -3.5 °C 1011.7 hPa SSW 6.4 km/h 6.4 km/h 25% 0 mm 0.0 W/m2
02:54 16.5 °C -3.1 °C 1011.7 hPa SSW 6.4 km/h 8 km/h 26% 0 mm 0.0 W/m2
03:17 16.3 °C -3.2 °C 1011.4 hPa SSW 6.4 km/h 9.7 km/h 26% 0 mm 0.0 W/m2
03:24 16 °C -3 °C 1011.4 hPa SSW 7.9 km/h 11.3 km/h 27% 0 mm 0.0 W/m2
03:32 16 °C -3 °C 1011.4 hPa SSW 9.7 km/h 11.3 km/h 27% 0 mm 0.0 W/m2
03:37 15.9 °C -3.1 °C 1011.4 hPa SSW 6.4 km/h 9.7 km/h 27% 0 mm 0.0 W/m2
03:42 15.8 °C -3.2 °C 1011.4 hPa SSW 6.4 km/h 9.7 km/h 27% 0 mm 0.0 W/m2
03:53 15.6 °C -3.3 °C 1011.4 hPa SSW 7.9 km/h 8 km/h 27% 0 mm 0.0 W/m2
03:58 15.4 °C -3 °C 1011.4 hPa SSW 3.2 km/h 6.4 km/h 28% 0 mm 0.0 W/m2
04:08 15.1 °C -3.3 °C 1011.4 hPa SSW 6.4 km/h 8 km/h 28% 0 mm 0.0 W/m2
04:13 15.1 °C -3.3 °C 1011.4 hPa SSW 7.9 km/h 8 km/h 28% 0 mm 0.0 W/m2
04:18 15 °C -3.4 °C 1011.4 hPa SSW 7.9 km/h 8 km/h 28% 0 mm 0.0 W/m2
04:23 15.1 °C -2.8 °C 1011.4 hPa SSW 6.4 km/h 9.7 km/h 29% 0 mm 0.0 W/m2
04:28 15.2 °C -3.2 °C 1011.1 hPa SSW 6.4 km/h 8 km/h 28% 0 mm 0.0 W/m2
04:38 15.1 °C -2.8 °C 1011.4 hPa Calm     29% 0 mm 0.0 W/m2
04:44 15 °C -2.9 °C 1011.1 hPa Calm     29% 0 mm 0.0 W/m2
05:00 14.3 °C -3.5 °C 1011.1 hPa Calm     29% 0 mm 0.0 W/m2
05:05 14.2 °C -3.1 °C 1011.4 hPa Calm     30% 0 mm 0.0 W/m2
05:22 13.6 °C -3.7 °C 1011.4 hPa Calm     30% 0 mm 0.0 W/m2
05:27 13.7 °C -3.6 °C 1011.4 hPa Calm     30% 0 mm 0.0 W/m2
05:37 13.5 °C -3.7 °C 1011.4 hPa Calm     30% 0 mm 0.0 W/m2
05:45 13.4 °C -3.4 °C 1011.4 hPa Calm     31% 0 mm 0.0 W/m2
05:53 13.6 °C -3.2 °C 1011.4 hPa Calm     31% 0 mm 5.0 W/m2
05:59 13.7 °C -3.1 °C 1011.7 hPa Calm     31% 0 mm 9.0 W/m2
06:10 14.1 °C -3.2 °C 1011.7 hPa Calm     30% 0 mm 14.0 W/m2
06:21 14.3 °C -2.6 °C 1011.7 hPa Calm     31% 0 mm 30.0 W/m2
06:49 16.1 °C -2.4 °C 1012.1 hPa Calm     28% 0 mm 135.0 W/m2
07:00 16.6 °C -2.5 °C 1012.1 hPa Calm     27% 0 mm 181.0 W/m2
07:10 17 °C -2.1 °C 1012.4 hPa Calm     27% 0 mm 221.0 W/m2
07:19 17.7 °C -2.1 °C 1012.4 hPa Calm     26% 0 mm 260.0 W/m2
07:24 18.1 °C -2.2 °C 1012.4 hPa Calm     25% 0 mm 279.0 W/m2
07:28 18.4 °C -2 °C 1012.4 hPa Calm     25% 0 mm 299.0 W/m2
07:34 18.7 °C -2.3 °C 1012.4 hPa SSW 11.1 km/h 12.9 km/h 24% 0 mm 316.0 W/m2
07:39 18.9 °C -2.1 °C 1012.4 hPa SSW 11.1 km/h 14.5 km/h 24% 0 mm 330.0 W/m2
07:49 19.3 °C -2.4 °C 1012.4 hPa SSW 9.7 km/h 12.9 km/h 23% 0 mm 367.0 W/m2
07:59 19.6 °C -2.1 °C 1012.4 hPa SSW 7.9 km/h 12.9 km/h 23% 0 mm 403.0 W/m2
08:04 19.8 °C -1.9 °C 1012.4 hPa SSW 11.1 km/h 11.3 km/h 23% 0 mm 420.0 W/m2
08:13 20.2 °C -2.2 °C 1012.4 hPa SSW 6.4 km/h 9.7 km/h 22% 0 mm 455.0 W/m2
08:18 20.4 °C -2 °C 1012.4 hPa SSW 3.2 km/h 8 km/h 22% 0 mm 469.0 W/m2
08:24 20.7 °C -1.8 °C 1012.8 hPa Calm     22% 0 mm 487.0 W/m2
08:30 20.9 °C -1.6 °C 1012.4 hPa Calm     22% 0 mm 504.0 W/m2
08:37 21.4 °C -1.8 °C 1012.4 hPa Calm     21% 0 mm 524.0 W/m2
08:50 22.2 °C -1.2 °C 1012.4 hPa Calm     21% 0 mm 561.0 W/m2
09:06 22.9 °C -1.3 °C 1012.4 hPa Calm     20% 0 mm 610.0 W/m2
09:21 23.9 °C -1.1 °C 1012.1 hPa Calm     19% 0 mm 659.0 W/m2
09:35 24.5 °C -1.4 °C 1012.1 hPa Calm     18% 0 mm 701.0 W/m2
09:47 24.7 °C -2 °C 1012.1 hPa Calm     17% 0 mm 726.0 W/m2
09:57 25.2 °C -2.4 °C 1011.7 hPa SSW 13 km/h 14.5 km/h 16% 0 mm 770.0 W/m2
10:32 26.8 °C -3.9 °C 1011.7 hPa Calm     13% 0 mm 840.0 W/m2
10:47 27.3 °C -3.5 °C 1011.4 hPa SSW 9.7 km/h 12.9 km/h 13% 0 mm 875.0 W/m2
10:56 27.5 °C -4.4 °C 1011.4 hPa WSW 11.1 km/h 14.5 km/h 12% 0 mm 893.0 W/m2
11:05 27.8 °C -4.2 °C 1011.4 hPa WSW 7.9 km/h 14.5 km/h 12% 0 mm 907.0 W/m2
11:15 27.8 °C -4.2 °C 1011.4 hPa WSW 1.4 km/h 9.7 km/h 12% 0 mm 925.0 W/m2
11:26 28.1 °C -4 °C 1011.1 hPa Calm   1.6 km/h 12% 0 mm 939.0 W/m2
11:35 28.7 °C -3.5 °C 1011.1 hPa WSW 6.4 km/h 14.5 km/h 12% 0 mm 949.0 W/m2
11:45 28.9 °C -4.5 °C 1011.1 hPa West 11.1 km/h 20.9 km/h 11% 0 mm 954.0 W/m2
11:57 29 °C -4.4 °C 1011.1 hPa NW 13 km/h 24.1 km/h 11% 0 mm 967.0 W/m2
12:07 29.1 °C -4.4 °C 1010.7 hPa NW 11.1 km/h 19.3 km/h 11% 0 mm 974.0 W/m2
12:12 28.9 °C -4.5 °C 1010.7 hPa Calm   14.5 km/h 11% 0 mm 981.0 W/m2
12:28 29.4 °C -5.4 °C 1010.4 hPa NW 7.9 km/h 17.7 km/h 10% 0 mm 1004.0 W/m2
12:49 29.8 °C -5.1 °C 1010.4 hPa NW 9.7 km/h 12.9 km/h 10% 0 mm 1014.0 W/m2
13:05 30.2 °C -6.2 °C 1010 hPa NW 6.4 km/h 17.7 km/h 9% 0 mm 1005.0 W/m2
13:14 30.1 °C -6.3 °C 1010 hPa Calm   17.7 km/h 9% 0 mm 779.0 W/m2
13:37 30.7 °C -5.8 °C 1010 hPa NW 13 km/h 19.3 km/h 9% 0 mm 949.0 W/m2
13:49 30.8 °C -7.3 °C 1009.7 hPa Calm   1.6 km/h 8% 0 mm 944.0 W/m2
13:59 30.8 °C -7.3 °C 1009.7 hPa Calm   1.6 km/h 8% 0 mm 944.0 W/m2
14:18 31.2 °C -7 °C 1009 hPa Calm   12.9 km/h 8% 0 mm 766.0 W/m2
14:50 31.1 °C -8.8 °C 1008.7 hPa NW 7.9 km/h 17.7 km/h 7% 0 mm 879.0 W/m2
15:06 31.3 °C -8.6 °C 1008.4 hPa NW 17.7 km/h 20.9 km/h 7% 0 mm 847.0 W/m2
15:15 31.5 °C -8.5 °C 1008.4 hPa NW 9.7 km/h 12.9 km/h 7% 0 mm 784.0 W/m2
15:30 31.5 °C -8.5 °C 1008 hPa Calm   1.6 km/h 7% 0 mm 729.0 W/m2
15:45 31.9 °C -10.1 °C 1008 hPa NW 4.7 km/h 9.7 km/h 6% 0 mm 682.0 W/m2
16:01 31.8 °C -8.3 °C 1007.7 hPa NW 16.3 km/h 16.3 km/h 7% 0 mm 633.0 W/m2
16:15 31.6 °C -8.4 °C 1007.7 hPa Calm   12.9 km/h 7% 0 mm 599.0 W/m2
16:26 31.9 °C -8.2 °C 1007.7 hPa Calm   6.4 km/h 7% 0 mm 566.0 W/m2
16:31 31.8 °C -8.3 °C 1007.3 hPa Calm     7% 0 mm 536.0 W/m2
16:41 31.9 °C -8.2 °C 1007.3 hPa NW 7.9 km/h 11.3 km/h 7% 0 mm 501.0 W/m2
16:47 31.9 °C -8.2 °C 1007.3 hPa NW 7.9 km/h 11.3 km/h 7% 0 mm 501.0 W/m2
16:56 31.8 °C -8.3 °C 1007.3 hPa WNW 13 km/h 16.1 km/h 7% 0 mm 448.0 W/m2
17:10 31.8 °C -8.3 °C 1007 hPa WSW 13 km/h 16.1 km/h 7% 0 mm 413.0 W/m2
17:20 31.6 °C -8.4 °C 1007 hPa WSW 6.4 km/h 11.3 km/h 7% 0 mm 380.0 W/m2
17:30 31.6 °C -8.4 °C 1007.3 hPa WSW 11.1 km/h 14.5 km/h 7% 0 mm 345.0 W/m2
17:42 31.7 °C -8.3 °C 1007.3 hPa WSW 13 km/h 17.7 km/h 7% 0 mm 308.0 W/m2
17:58 31.7 °C -8.3 °C 1007.3 hPa SW 14.3 km/h 20.9 km/h 7% 0 mm 255.0 W/m2
18:14 31.2 °C -8.7 °C 1007.3 hPa SW 9.7 km/h 16.1 km/h 7% 0 mm 192.0 W/m2
18:42 30.9 °C -8.9 °C 1007.3 hPa SW 14.3 km/h 19.3 km/h 7% 0 mm 76.0 W/m2
18:54 30.6 °C -9.1 °C 1007.3 hPa SW 13 km/h 17.7 km/h 7% 0 mm 19.0 W/m2
23:14 23.2 °C -1.7 °C 1010 hPa SSW 16.3 km/h 20.9 km/h 19% 0 mm 0.0 W/m2
23:19 23.2 °C -1.7 °C 1009.7 hPa SSW 14.3 km/h 20.9 km/h 19% 0 mm 0.0 W/m2
23:24 23.1 °C -1.8 °C 1010 hPa SSW 13 km/h 17.7 km/h 19% 0 mm 0.0 W/m2
23:29 22.9 °C -2 °C 1010 hPa SSW 13 km/h 17.7 km/h 19% 0 mm 0.0 W/m2
23:34 22.8 °C -1.3 °C 1010 hPa SSW 16.3 km/h 17.7 km/h 20% 0 mm 0.0 W/m2
23:44 22.6 °C -1.5 °C 1010 hPa SSW 11.1 km/h 14.5 km/h 20% 0 mm 0.0 W/m2
23:50 22.4 °C -1.7 °C 1010 hPa SSW 11.1 km/h 12.9 km/h 20% 0 mm 0.0 W/m2
23:56 22.2 °C -1.8 °C 1010 hPa SSW 11.1 km/h 12.9 km/h 20% 0 mm 0.0 W/m2
Canyon Roadhouse, Fishriver Canyon, Namibia
Compliments of Weather Underground - 2.25 mb